Time;durP1;ratioP1;P1;durP2;ratioP2;P2;SDS_P1;SDS_P2;PMS_P1;PMS_P2;Temp;Humidity;BMP_temperature;BMP_pressure;BME280_temperature;BME280_humidity;BME280_pressure;Samples;Min_cycle;Max_cycle;Signal;HPM_P1;HPM_P2
2022/01/28 00:02:51;;;;;;;2.25;0.90;;;;;;;;;;5019341;28;20527;-82
2022/01/28 00:05:20;;;;;;;5.13;1.00;;;;;;;;;;5019867;28;20022;-80
2022/01/28 00:07:46;;;;;;;5.68;1.42;;;;;;;;;;5020582;28;20046;-80
2022/01/28 00:10:12;;;;;;;4.93;1.00;;;;;;;;;;5001451;28;20030;-79
2022/01/28 00:12:51;;;;;;;3.78;0.85;;;;;;;;;;5001599;28;20040;-81
2022/01/28 00:15:27;;;;;;;2.72;1.00;;;;;;;;;;5002248;28;20028;-79
2022/01/28 00:39:25;;;;;;;2.78;0.60;;;;;;;;;;5019716;28;20044;-80
2022/01/28 00:41:50;;;;;;;3.40;0.60;;;;;;;;;;5018289;28;20025;-80
2022/01/28 00:44:15;;;;;;;6.65;1.00;;;;;;;;;;5020183;28;20033;-82
2022/01/28 00:46:40;;;;;;;5.68;0.95;;;;;;;;;;5019116;28;20017;-79
2022/01/28 00:49:06;;;;;;;4.18;0.90;;;;;;;;;;5018912;28;20057;-79
2022/01/28 00:51:31;;;;;;;5.57;0.90;;;;;;;;;;5019504;28;20467;-80
2022/01/28 00:53:56;;;;;;;3.35;0.60;;;;;;;;;;5001375;28;20057;-81
2022/01/28 00:56:21;;;;;;;2.00;0.50;;;;;;;;;;5018345;28;20056;-78
2022/01/28 00:58:48;;;;;;;3.80;0.95;;;;;;;;;;5001583;28;20483;-80
2022/01/28 01:01:13;;;;;;;5.72;1.13;;;;;;;;;;5001429;28;20049;-81
2022/01/28 01:03:38;;;;;;;2.83;0.70;;;;;;;;;;5001272;28;20079;-79
2022/01/28 01:06:03;;;;;;;6.22;0.80;;;;;;;;;;5000834;28;20084;-81
2022/01/28 01:08:29;;;;;;;2.30;0.57;;;;;;;;;;5018340;28;20025;-79
2022/01/28 01:10:54;;;;;;;3.83;0.70;;;;;;;;;;5019382;28;20048;-80
2022/01/28 01:13:20;;;;;;;4.43;0.63;;;;;;;;;;5018039;28;20049;-79
2022/01/28 01:15:49;;;;;;;1.65;0.40;;;;;;;;;;5001090;28;20057;-80
2022/01/28 01:23:22;;;;;;;5.82;0.90;;;;;;;;;;5017893;28;20080;-78
2022/01/28 01:25:52;;;;;;;3.25;0.90;;;;;;;;;;5001244;28;20022;-80
2022/01/28 01:28:20;;;;;;;5.00;1.23;;;;;;;;;;5001013;28;20029;-80
2022/01/28 01:30:46;;;;;;;3.85;0.80;;;;;;;;;;5018622;28;20022;-79
2022/01/28 01:33:13;;;;;;;2.95;0.60;;;;;;;;;;5001024;28;20037;-79
2022/01/28 01:35:40;;;;;;;3.03;0.50;;;;;;;;;;5019289;28;20455;-80
2022/01/28 01:38:07;;;;;;;4.45;0.80;;;;;;;;;;5018428;28;20451;-79
2022/01/28 01:40:35;;;;;;;7.22;0.80;;;;;;;;;;5018245;28;20021;-80
2022/01/28 01:43:10;;;;;;;5.72;0.73;;;;;;;;;;5000724;28;20026;-79
2022/01/28 01:53:32;;;;;;;3.80;1.00;;;;;;;;;;5018642;28;20040;-80
2022/01/28 01:55:57;;;;;;;5.10;0.88;;;;;;;;;;5018042;28;20104;-79
2022/01/28 01:58:29;;;;;;;5.13;0.95;;;;;;;;;;5018425;28;20026;-79
2022/01/28 02:00:54;;;;;;;5.47;0.63;;;;;;;;;;5017906;28;20045;-80
2022/01/28 02:03:20;;;;;;;2.80;0.65;;;;;;;;;;5017886;28;20025;-82
2022/01/28 02:05:45;;;;;;;5.22;0.88;;;;;;;;;;5018487;28;20022;-80
2022/01/28 02:08:11;;;;;;;3.55;0.80;;;;;;;;;;5000201;28;20061;-79
2022/01/28 02:10:36;;;;;;;6.00;1.10;;;;;;;;;;5017524;28;20022;-79
2022/01/28 02:13:01;;;;;;;2.78;0.90;;;;;;;;;;5000239;28;20034;-80
2022/01/28 02:15:27;;;;;;;4.03;1.50;;;;;;;;;;5018055;28;20037;-79
2022/01/28 02:17:52;;;;;;;4.70;0.95;;;;;;;;;;5000422;28;20026;-81
2022/01/28 02:20:26;;;;;;;7.00;1.40;;;;;;;;;;5018236;28;20026;-80
2022/01/28 02:22:54;;;;;;;8.82;1.17;;;;;;;;;;5018459;28;20069;-78
2022/01/28 02:25:26;;;;;;;8.88;1.23;;;;;;;;;;5017244;28;20037;-80
2022/01/28 02:27:52;;;;;;;1.60;0.63;;;;;;;;;;5018033;28;20022;-82
2022/01/28 02:30:17;;;;;;;6.10;0.90;;;;;;;;;;5017573;28;20033;-81
2022/01/28 02:32:44;;;;;;;6.82;0.93;;;;;;;;;;5000090;28;20527;-81
2022/01/28 02:35:10;;;;;;;1.88;0.70;;;;;;;;;;5003728;28;20025;-79
2022/01/28 02:37:36;;;;;;;15.77;1.23;;;;;;;;;;5021812;28;20076;-79
2022/01/28 02:40:03;;;;;;;5.43;1.50;;;;;;;;;;5022497;28;20026;-80
2022/01/28 02:42:44;;;;;;;6.57;0.95;;;;;;;;;;5003859;28;20041;-80
2022/01/28 02:45:09;;;;;;;3.80;0.95;;;;;;;;;;5003973;28;20045;-77
2022/01/28 02:47:38;;;;;;;6.05;0.75;;;;;;;;;;5021770;28;20103;-80
2022/01/28 02:50:07;;;;;;;2.30;0.50;;;;;;;;;;5021484;28;20030;-80
2022/01/28 02:52:49;;;;;;;4.38;1.00;;;;;;;;;;5003237;28;20144;-79
2022/01/28 02:55:15;;;;;;;4.60;1.00;;;;;;;;;;5003896;28;20025;-80
2022/01/28 02:57:51;;;;;;;1.85;0.60;;;;;;;;;;5020996;28;20029;-80
2022/01/28 03:00:16;;;;;;;3.70;0.77;;;;;;;;;;5020855;28;20030;-80
2022/01/28 03:02:41;;;;;;;7.43;0.95;;;;;;;;;;5020046;28;20067;-81
2022/01/28 03:05:30;;;;;;;6.32;0.85;;;;;;;;;;5020462;28;20022;-80
2022/01/28 03:07:52;;;;;;;6.07;0.75;;;;;;;;;;5020622;28;20045;-80
2022/01/28 03:15:52;;;;;;;4.28;0.73;;;;;;;;;;5021271;28;19920;-79
2022/01/28 03:18:22;;;;;;;3.75;0.70;;;;;;;;;;5020918;28;20228;-80
2022/01/28 03:23:18;;;;;;;5.75;1.05;;;;;;;;;;5021980;28;20030;-80
2022/01/28 03:25:45;;;;;;;4.60;1.20;;;;;;;;;;5003310;28;20025;-79
2022/01/28 03:28:12;;;;;;;7.10;1.17;;;;;;;;;;5020500;28;20026;-79
2022/01/28 03:30:37;;;;;;;2.50;0.80;;;;;;;;;;5019701;28;20022;-81
2022/01/28 03:33:03;;;;;;;5.63;0.75;;;;;;;;;;5019669;28;20025;-79
2022/01/28 03:35:30;;;;;;;4.88;1.08;;;;;;;;;;5001917;28;20018;-81
2022/01/28 03:38:02;;;;;;;2.72;1.00;;;;;;;;;;5019895;28;20026;-81
2022/01/28 03:40:33;;;;;;;5.63;0.80;;;;;;;;;;5020025;28;20029;-80
2022/01/28 03:42:58;;;;;;;3.55;0.60;;;;;;;;;;5002040;28;20033;-79
2022/01/28 03:45:23;;;;;;;5.00;1.05;;;;;;;;;;5001219;28;20022;-79
2022/01/28 03:47:48;;;;;;;2.40;0.60;;;;;;;;;;5002142;28;20088;-79
2022/01/28 03:50:14;;;;;;;4.70;0.93;;;;;;;;;;5020336;28;20018;-80
2022/01/28 03:52:39;;;;;;;2.85;0.63;;;;;;;;;;5020281;28;20108;-83
2022/01/28 03:55:05;;;;;;;7.72;1.00;;;;;;;;;;5002234;28;20034;-79
2022/01/28 03:57:30;;;;;;;4.70;0.90;;;;;;;;;;5020185;28;20033;-79
2022/01/28 03:59:55;;;;;;;5.47;0.80;;;;;;;;;;5019978;28;20029;-78
2022/01/28 04:02:25;;;;;;;5.35;0.65;;;;;;;;;;5020098;28;20489;-80
2022/01/28 04:12:52;;;;;;;8.05;1.27;;;;;;;;;;5021162;28;20037;-79
2022/01/28 04:17:50;;;;;;;7.18;1.10;;;;;;;;;;5019867;28;20033;-80
2022/01/28 04:20:15;;;;;;;7.20;1.00;;;;;;;;;;5019423;28;20052;-81
2022/01/28 04:22:41;;;;;;;10.48;1.00;;;;;;;;;;5019785;28;20055;-82
2022/01/28 04:25:06;;;;;;;3.83;1.13;;;;;;;;;;5019314;28;20117;-81
2022/01/28 04:27:32;;;;;;;5.55;1.00;;;;;;;;;;5019929;28;20450;-79
2022/01/28 04:29:57;;;;;;;7.40;1.10;;;;;;;;;;5002836;28;20026;-83
2022/01/28 04:32:25;;;;;;;5.45;0.77;;;;;;;;;;5002078;28;20502;-80
2022/01/28 04:34:50;;;;;;;6.93;0.82;;;;;;;;;;5019819;28;20479;-80
2022/01/28 04:37:28;;;;;;;6.07;0.68;;;;;;;;;;5020249;28;20111;-80
2022/01/28 04:40:06;;;;;;;3.78;0.80;;;;;;;;;;5002194;28;20018;-81
2022/01/28 04:45:24;;;;;;;;;;;;;;;;;;5018696;28;20076;-79
2022/01/28 04:48:10;;;;;;;5.22;1.27;;;;;;;;;;5018291;28;19909;-82
2022/01/28 04:56:09;;;;;;;4.60;0.70;;;;;;;;;;5018202;28;20399;-81
2022/01/28 04:58:56;;;;;;;6.50;0.80;;;;;;;;;;4999434;28;20033;-81
2022/01/28 05:04:19;;;;;;;1.13;0.70;;;;;;;;;;5018610;28;20080;-81
2022/01/28 05:15:35;;;;;;;5.75;1.45;;;;;;;;;;5018763;28;20059;-80
2022/01/28 05:23:53;;;;;;;5.18;1.30;;;;;;;;;;5020262;28;20108;-80
2022/01/28 05:26:24;;;;;;;5.78;1.00;;;;;;;;;;5018632;28;20022;-81
2022/01/28 05:28:50;;;;;;;6.15;0.90;;;;;;;;;;5016661;28;20022;-81
2022/01/28 05:31:16;;;;;;;9.27;1.70;;;;;;;;;;5017320;28;20026;-83
2022/01/28 05:33:42;;;;;;;8.73;1.30;;;;;;;;;;4999472;28;20484;-83
2022/01/28 05:36:07;;;;;;;11.60;1.10;;;;;;;;;;4999353;28;20080;-82
2022/01/28 05:38:32;;;;;;;8.48;1.38;;;;;;;;;;5017185;28;20395;-84
2022/01/28 05:40:58;;;;;;;7.47;1.15;;;;;;;;;;5019406;28;20030;-82
2022/01/28 05:43:23;;;;;;;6.95;1.17;;;;;;;;;;4999566;28;20403;-82
2022/01/28 05:45:48;;;;;;;9.50;0.93;;;;;;;;;;5017941;28;20022;-82
2022/01/28 05:48:15;;;;;;;4.65;0.90;;;;;;;;;;5017498;28;20022;-81
2022/01/28 05:50:41;;;;;;;5.28;1.10;;;;;;;;;;5016263;28;20513;-81
2022/01/28 05:53:06;;;;;;;3.78;0.63;;;;;;;;;;5017327;28;20041;-79
2022/01/28 05:55:31;;;;;;;5.28;1.02;;;;;;;;;;5018631;28;20044;-81
2022/01/28 05:57:56;;;;;;;9.55;1.45;;;;;;;;;;5017980;28;20089;-80
2022/01/28 06:00:21;;;;;;;10.90;1.23;;;;;;;;;;4999707;28;20030;-79
2022/01/28 06:02:47;;;;;;;8.13;1.23;;;;;;;;;;5018137;28;20395;-81
2022/01/28 06:05:12;;;;;;;10.95;1.50;;;;;;;;;;5018392;28;20026;-77
2022/01/28 06:07:41;;;;;;;6.22;1.40;;;;;;;;;;5019152;28;20030;-79
2022/01/28 06:10:11;;;;;;;4.55;0.93;;;;;;;;;;5018434;28;20022;-79
2022/01/28 06:12:47;;;;;;;7.85;1.30;;;;;;;;;;5019803;28;20018;-81
2022/01/28 06:15:13;;;;;;;8.13;1.60;;;;;;;;;;5019884;28;20030;-80
2022/01/28 06:17:38;;;;;;;11.15;1.63;;;;;;;;;;5018294;28;20025;-80
2022/01/28 06:20:06;;;;;;;8.15;1.40;;;;;;;;;;5018283;28;20060;-80
2022/01/28 06:22:32;;;;;;;9.98;1.48;;;;;;;;;;5017337;28;20034;-78
2022/01/28 06:24:57;;;;;;;8.07;1.58;;;;;;;;;;4999629;28;20537;-81
2022/01/28 06:27:23;;;;;;;6.80;0.95;;;;;;;;;;4999849;28;20410;-80
2022/01/28 06:29:49;;;;;;;6.10;1.50;;;;;;;;;;5017278;28;20036;-79
2022/01/28 06:32:16;;;;;;;8.38;1.38;;;;;;;;;;5018508;28;20109;-82
2022/01/28 06:34:41;;;;;;;8.52;1.90;;;;;;;;;;5017249;28;20085;-82
2022/01/28 06:37:06;;;;;;;11.63;1.45;;;;;;;;;;5017228;28;20057;-81
2022/01/28 06:39:32;;;;;;;9.25;1.83;;;;;;;;;;5017449;28;20033;-80
2022/01/28 06:41:59;;;;;;;8.80;1.55;;;;;;;;;;5017326;28;20028;-80
2022/01/28 06:44:25;;;;;;;6.93;1.23;;;;;;;;;;4999984;28;20022;-82
2022/01/28 06:46:50;;;;;;;11.50;1.95;;;;;;;;;;5016819;28;20080;-82
2022/01/28 06:49:16;;;;;;;6.15;1.33;;;;;;;;;;5015799;28;20407;-79
2022/01/28 06:51:41;;;;;;;10.32;1.50;;;;;;;;;;5016015;28;20064;-80
2022/01/28 06:54:06;;;;;;;5.80;1.25;;;;;;;;;;5016683;28;20037;-80
2022/01/28 06:56:31;;;;;;;6.80;1.60;;;;;;;;;;5017006;28;20025;-79
2022/01/28 06:58:57;;;;;;;7.03;1.67;;;;;;;;;;4999657;28;20475;-81
2022/01/28 07:01:22;;;;;;;8.45;1.80;;;;;;;;;;5017708;28;20080;-79
2022/01/28 07:03:47;;;;;;;7.78;1.65;;;;;;;;;;5016841;28;20124;-80
2022/01/28 07:06:14;;;;;;;8.57;1.33;;;;;;;;;;5017793;28;20099;-79
2022/01/28 07:08:39;;;;;;;8.07;1.60;;;;;;;;;;5017299;28;20026;-81
2022/01/28 07:11:04;;;;;;;6.93;1.33;;;;;;;;;;5017897;28;20041;-81
2022/01/28 07:13:29;;;;;;;11.48;1.77;;;;;;;;;;5016746;28;20036;-81
2022/01/28 07:15:54;;;;;;;11.85;1.67;;;;;;;;;;4997787;28;20038;-80
2022/01/28 07:18:20;;;;;;;6.05;1.38;;;;;;;;;;5016528;28;20065;-80
2022/01/28 07:20:45;;;;;;;8.20;1.92;;;;;;;;;;5017361;28;20034;-81
2022/01/28 07:23:11;;;;;;;7.43;1.60;;;;;;;;;;5020140;28;20026;-81
2022/01/28 07:25:36;;;;;;;7.50;1.60;;;;;;;;;;5020896;28;20018;-80
2022/01/28 07:28:01;;;;;;;7.85;1.23;;;;;;;;;;5003048;28;20049;-80
2022/01/28 07:30:26;;;;;;;8.00;1.67;;;;;;;;;;5003878;28;20114;-80
2022/01/28 07:32:52;;;;;;;5.05;1.50;;;;;;;;;;5002672;28;20485;-81
2022/01/28 07:35:18;;;;;;;8.13;1.17;;;;;;;;;;5002997;28;20406;-79
2022/01/28 07:37:43;;;;;;;8.30;1.27;;;;;;;;;;5020611;28;20022;-80
2022/01/28 07:40:09;;;;;;;14.27;1.80;;;;;;;;;;5001682;28;20108;-81
2022/01/28 07:42:37;;;;;;;9.43;1.50;;;;;;;;;;5020970;28;20391;-80
2022/01/28 07:45:07;;;;;;;8.88;1.40;;;;;;;;;;5020688;28;20026;-80
2022/01/28 07:47:32;;;;;;;13.60;1.63;;;;;;;;;;5020947;28;20052;-81
2022/01/28 07:49:58;;;;;;;6.05;1.08;;;;;;;;;;5020802;28;20037;-79
2022/01/28 07:52:23;;;;;;;7.65;1.05;;;;;;;;;;5003750;28;20025;-82
2022/01/28 07:54:50;;;;;;;5.25;1.20;;;;;;;;;;5019654;28;20538;-79
2022/01/28 07:57:15;;;;;;;8.43;1.38;;;;;;;;;;5020810;28;20057;-81
2022/01/28 07:59:41;;;;;;;3.83;0.73;;;;;;;;;;5020309;28;20037;-78
2022/01/28 08:02:07;;;;;;;5.15;1.02;;;;;;;;;;5004768;28;20026;-81
2022/01/28 08:04:32;;;;;;;7.93;1.67;;;;;;;;;;5022084;28;20037;-80
2022/01/28 08:06:57;;;;;;;9.55;1.85;;;;;;;;;;5022300;28;20111;-80
2022/01/28 08:09:22;;;;;;;3.25;1.10;;;;;;;;;;5023082;28;20026;-83
2022/01/28 08:11:48;;;;;;;13.48;1.55;;;;;;;;;;5024830;28;20034;-81
2022/01/28 08:14:14;;;;;;;9.73;1.67;;;;;;;;;;5006851;28;20022;-80
2022/01/28 08:16:39;;;;;;;6.10;1.48;;;;;;;;;;5006994;28;20022;-81
2022/01/28 08:19:05;;;;;;;9.98;1.58;;;;;;;;;;5008180;28;20030;-81
2022/01/28 08:21:30;;;;;;;5.38;1.13;;;;;;;;;;5030037;28;20030;-82
2022/01/28 08:23:55;;;;;;;6.00;1.48;;;;;;;;;;5032082;28;20038;-83
2022/01/28 08:26:21;;;;;;;2.92;0.73;;;;;;;;;;5034775;28;20060;-82
2022/01/28 08:28:47;;;;;;;8.82;1.40;;;;;;;;;;5035237;28;20026;-83
2022/01/28 08:31:13;;;;;;;8.07;1.27;;;;;;;;;;5033129;28;20076;-81
2022/01/28 08:33:38;;;;;;;7.70;1.38;;;;;;;;;;5033092;28;20049;-83
2022/01/28 08:36:04;;;;;;;6.70;1.08;;;;;;;;;;5031528;28;20037;-83
2022/01/28 08:38:35;;;;;;;4.38;0.73;;;;;;;;;;5031411;28;20112;-83
2022/01/28 08:41:01;;;;;;;7.72;1.55;;;;;;;;;;5026901;28;20033;-82
2022/01/28 08:43:27;;;;;;;2.95;0.90;;;;;;;;;;5005259;28;20021;-81
2022/01/28 08:45:53;;;;;;;10.48;1.55;;;;;;;;;;5022829;28;20041;-81
2022/01/28 08:48:18;;;;;;;7.85;1.15;;;;;;;;;;5005055;28;20026;-80
2022/01/28 08:50:43;;;;;;;10.13;1.40;;;;;;;;;;5022879;28;20046;-80
2022/01/28 08:53:10;;;;;;;8.55;1.23;;;;;;;;;;5021873;28;20055;-81
2022/01/28 08:55:35;;;;;;;6.43;1.13;;;;;;;;;;5023537;28;20029;-81
2022/01/28 08:58:00;;;;;;;8.30;1.73;;;;;;;;;;5005250;28;20079;-81
2022/01/28 09:00:26;;;;;;;5.50;1.45;;;;;;;;;;5006618;28;20021;-81
2022/01/28 09:02:51;;;;;;;5.88;1.73;;;;;;;;;;5023864;28;20038;-80
2022/01/28 09:05:17;;;;;;;10.15;1.40;;;;;;;;;;5023869;28;20018;-80
2022/01/28 09:07:42;;;;;;;7.20;1.15;;;;;;;;;;5024551;28;20368;-80
2022/01/28 09:10:17;;;;;;;8.75;1.33;;;;;;;;;;5024254;28;20057;-80
2022/01/28 09:12:49;;;;;;;9.35;1.48;;;;;;;;;;5005920;28;20069;-82
2022/01/28 09:15:15;;;;;;;7.82;1.65;;;;;;;;;;5005850;28;20079;-82
2022/01/28 09:17:40;;;;;;;8.88;1.33;;;;;;;;;;5007472;28;20120;-82
2022/01/28 09:20:06;;;;;;;7.53;1.48;;;;;;;;;;5007099;28;20036;-81
2022/01/28 09:22:31;;;;;;;9.13;2.25;;;;;;;;;;5010377;28;20037;-82
2022/01/28 09:24:56;;;;;;;8.18;1.67;;;;;;;;;;5008880;28;20070;-82
2022/01/28 09:27:22;;;;;;;10.13;1.95;;;;;;;;;;5009491;28;20025;-83
2022/01/28 09:29:47;;;;;;;13.60;1.80;;;;;;;;;;5026362;28;20013;-84
2022/01/28 09:32:12;;;;;;;17.10;1.70;;;;;;;;;;5011576;28;20030;-84
2022/01/28 09:34:38;;;;;;;7.35;1.27;;;;;;;;;;5027512;28;20472;-83
2022/01/28 09:37:03;;;;;;;12.00;1.63;;;;;;;;;;5008584;28;20048;-84
2022/01/28 09:39:30;;;;;;;17.83;1.83;;;;;;;;;;5027212;28;20395;-82
2022/01/28 09:42:00;;;;;;;6.38;1.17;;;;;;;;;;5027639;28;20033;-83
2022/01/28 09:44:29;;;;;;;6.65;1.60;;;;;;;;;;5019966;28;20042;-80
2022/01/28 09:46:56;;;;;;;9.35;1.45;;;;;;;;;;5002030;28;20030;-81
2022/01/28 09:49:21;;;;;;;12.85;1.67;;;;;;;;;;5001262;28;20028;-84
2022/01/28 09:51:47;;;;;;;8.02;1.20;;;;;;;;;;5024816;28;20061;-83
2022/01/28 09:54:12;;;;;;;10.05;1.38;;;;;;;;;;5026821;28;20045;-84
2022/01/28 09:56:37;;;;;;;5.30;1.45;;;;;;;;;;5027640;28;20106;-83
2022/01/28 09:59:02;;;;;;;13.63;1.80;;;;;;;;;;5009373;28;20026;-83
2022/01/28 10:01:28;;;;;;;15.15;2.00;;;;;;;;;;5008490;28;20021;-80
2022/01/28 10:04:03;;;;;;;9.35;1.65;;;;;;;;;;5009884;28;20022;-84
2022/01/28 10:06:35;;;;;;;4.25;1.08;;;;;;;;;;5027566;28;20546;-82
2022/01/28 10:09:08;;;;;;;12.13;1.58;;;;;;;;;;5025452;28;20052;-82
2022/01/28 10:11:35;;;;;;;12.10;1.90;;;;;;;;;;5025297;28;20052;-83
2022/01/28 10:14:12;;;;;;;8.77;2.00;;;;;;;;;;5023331;28;20037;-84
2022/01/28 10:16:38;;;;;;;5.97;1.38;;;;;;;;;;5004891;28;20553;-81
2022/01/28 10:19:11;;;;;;;5.93;1.13;;;;;;;;;;5005606;28;20033;-81
2022/01/28 10:21:41;;;;;;;11.32;1.75;;;;;;;;;;5021850;28;20114;-82
2022/01/28 10:24:14;;;;;;;8.40;1.27;;;;;;;;;;5004261;28;20137;-83
2022/01/28 10:27:07;;;;;;;9.43;1.75;;;;;;;;;;5021202;28;20026;-81
2022/01/28 10:29:35;;;;;;;11.40;1.55;;;;;;;;;;4995704;28;20042;-81
2022/01/28 10:32:05;;;;;;;11.90;1.75;;;;;;;;;;5021618;28;20034;-82
2022/01/28 10:34:33;;;;;;;12.43;1.60;;;;;;;;;;5020039;28;20029;-82
2022/01/28 10:37:22;;;;;;;15.77;2.50;;;;;;;;;;5020320;28;20054;-82
2022/01/28 10:39:59;;;;;;;9.82;1.98;;;;;;;;;;5019750;28;20018;-81
2022/01/28 10:42:48;;;;;;;14.38;1.80;;;;;;;;;;5003725;28;20030;-82
2022/01/28 10:45:16;;;;;;;12.48;1.55;;;;;;;;;;5003193;28;20038;-82
2022/01/28 10:47:44;;;;;;;12.43;1.80;;;;;;;;;;5020902;28;20081;-83
2022/01/28 10:50:33;;;;;;;18.30;2.47;;;;;;;;;;5021035;28;20022;-82
2022/01/28 10:52:58;;;;;;;16.77;2.20;;;;;;;;;;5021020;28;20117;-82
2022/01/28 10:55:23;;;;;;;15.03;2.33;;;;;;;;;;5005857;28;20045;-82
2022/01/28 10:58:16;;;;;;;12.95;2.33;;;;;;;;;;5008835;28;20839;-80
2022/01/28 11:00:44;;;;;;;7.63;1.60;;;;;;;;;;5022076;28;20101;-81
2022/01/28 11:03:11;;;;;;;19.38;2.22;;;;;;;;;;5026713;28;20396;-81
2022/01/28 11:05:38;;;;;;;14.52;1.67;;;;;;;;;;5008192;28;20511;-82
2022/01/28 11:08:05;;;;;;;9.32;1.55;;;;;;;;;;5007957;28;20022;-83
2022/01/28 11:10:31;;;;;;;10.65;1.92;;;;;;;;;;5007785;28;20026;-83
2022/01/28 11:12:59;;;;;;;10.07;2.03;;;;;;;;;;5007175;28;20062;-81
2022/01/28 11:15:25;;;;;;;17.38;2.25;;;;;;;;;;5025117;28;20034;-84
2022/01/28 11:17:51;;;;;;;17.52;1.95;;;;;;;;;;5025679;28;20090;-83
2022/01/28 11:20:21;;;;;;;4.43;1.35;;;;;;;;;;5007071;28;20025;-81
2022/01/28 11:23:14;;;;;;;9.77;1.77;;;;;;;;;;5024587;28;20034;-81
2022/01/28 11:25:55;;;;;;;14.68;2.13;;;;;;;;;;5026681;28;20029;-83
2022/01/28 11:28:20;;;;;;;14.50;2.03;;;;;;;;;;5025868;28;20033;-82
2022/01/28 11:30:51;;;;;;;13.23;1.98;;;;;;;;;;5008068;28;20040;-81
2022/01/28 11:33:17;;;;;;;9.63;1.60;;;;;;;;;;5025218;28;20022;-82
2022/01/28 11:35:45;;;;;;;21.17;1.98;;;;;;;;;;5026461;28;20041;-81
2022/01/28 11:38:29;;;;;;;17.67;1.92;;;;;;;;;;5007192;28;20034;-81
2022/01/28 11:41:13;;;;;;;10.73;1.98;;;;;;;;;;5023328;28;20111;-84
2022/01/28 11:43:50;;;;;;;10.53;2.10;;;;;;;;;;5004208;28;20033;-81
2022/01/28 11:46:19;;;;;;;11.00;1.75;;;;;;;;;;5026369;28;20018;-81
2022/01/28 11:48:56;;;;;;;8.60;2.17;;;;;;;;;;5025055;28;20026;-81
2022/01/28 11:51:32;;;;;;;10.82;1.85;;;;;;;;;;5007351;28;20033;-82
2022/01/28 11:54:01;;;;;;;11.40;1.77;;;;;;;;;;5024836;28;20057;-81
2022/01/28 11:56:29;;;;;;;9.13;1.75;;;;;;;;;;5007406;28;20117;-82
2022/01/28 11:58:58;;;;;;;9.90;1.67;;;;;;;;;;5025912;28;20509;-82
2022/01/28 12:01:58;;;;;;;9.45;1.60;;;;;;;;;;5010150;28;20026;-83
2022/01/28 12:04:27;;;;;;;10.30;1.73;;;;;;;;;;5025979;28;20029;-82
2022/01/28 12:06:57;;;;;;;10.25;1.98;;;;;;;;;;5022347;28;20048;-83
2022/01/28 12:09:23;;;;;;;18.02;2.38;;;;;;;;;;5022860;28;20021;-83
2022/01/28 12:11:49;;;;;;;15.98;2.10;;;;;;;;;;5022813;28;20022;-82
2022/01/28 12:14:14;;;;;;;13.75;1.92;;;;;;;;;;5009348;28;20112;-82
2022/01/28 12:16:43;;;;;;;11.57;1.70;;;;;;;;;;5011721;28;20033;-83
2022/01/28 12:19:16;;;;;;;12.93;1.77;;;;;;;;;;5027571;28;20021;-82
2022/01/28 12:22:08;;;;;;;15.20;2.00;;;;;;;;;;5009843;28;20045;-83
2022/01/28 12:24:37;;;;;;;13.15;1.45;;;;;;;;;;5028310;28;20290;-82
2022/01/28 12:27:05;;;;;;;12.18;1.80;;;;;;;;;;5029491;28;20029;-82
2022/01/28 12:29:35;;;;;;;6.88;1.95;;;;;;;;;;5027502;28;20426;-82
2022/01/28 12:32:01;;;;;;;5.55;0.93;;;;;;;;;;5025442;28;20030;-82
2022/01/28 12:34:27;;;;;;;14.20;1.83;;;;;;;;;;5026138;28;20030;-82
2022/01/28 12:36:53;;;;;;;9.88;1.92;;;;;;;;;;5008111;28;20049;-82
2022/01/28 12:39:32;;;;;;;9.27;1.92;;;;;;;;;;5026725;28;20022;-82
2022/01/28 12:42:21;;;;;;;13.82;2.10;;;;;;;;;;5008115;28;20026;-83
2022/01/28 12:44:55;;;;;;;16.95;2.05;;;;;;;;;;5025528;28;20033;-81
2022/01/28 12:47:21;;;;;;;16.98;3.15;;;;;;;;;;5010633;28;20089;-81
2022/01/28 12:49:56;;;;;;;9.38;1.80;;;;;;;;;;5028093;28;20038;-81
2022/01/28 12:52:22;;;;;;;10.48;1.65;;;;;;;;;;5027107;28;20030;-83
2022/01/28 12:54:48;;;;;;;6.28;1.80;;;;;;;;;;5026479;28;20029;-84
2022/01/28 12:57:20;;;;;;;9.43;1.70;;;;;;;;;;5008411;28;20041;-83
2022/01/28 12:59:46;;;;;;;14.10;1.48;;;;;;;;;;5008429;28;20061;-83
2022/01/28 13:02:13;;;;;;;10.25;1.75;;;;;;;;;;5027716;28;20034;-83
2022/01/28 13:05:00;;;;;;;10.75;1.75;;;;;;;;;;5025160;28;20597;-82
2022/01/28 13:10:18;;;;;;;9.55;1.70;;;;;;;;;;5026146;28;20056;-82
2022/01/28 13:12:44;;;;;;;14.85;2.03;;;;;;;;;;5025804;28;20481;-83
2022/01/28 13:15:12;;;;;;;14.80;2.42;;;;;;;;;;5025777;28;20036;-81
2022/01/28 13:17:39;;;;;;;10.52;1.80;;;;;;;;;;5008446;28;20022;-80
2022/01/28 13:20:09;;;;;;;18.25;2.08;;;;;;;;;;5026609;28;20021;-82
2022/01/28 13:22:36;;;;;;;13.32;2.05;;;;;;;;;;5028064;28;20030;-81
2022/01/28 13:25:18;;;;;;;13.77;1.67;;;;;;;;;;5010592;28;20032;-82
2022/01/28 13:27:46;;;;;;;8.93;2.13;;;;;;;;;;5010051;28;20026;-84
2022/01/28 13:30:14;;;;;;;14.48;1.75;;;;;;;;;;5028507;28;20025;-82
2022/01/28 13:32:45;;;;;;;18.83;2.17;;;;;;;;;;5027369;28;20081;-82
2022/01/28 13:35:25;;;;;;;12.18;1.63;;;;;;;;;;5011049;28;20112;-83
2022/01/28 13:38:00;;;;;;;6.97;1.58;;;;;;;;;;5009913;28;20415;-83
2022/01/28 13:40:31;;;;;;;12.68;2.03;;;;;;;;;;5026716;28;20029;-82
2022/01/28 13:43:06;;;;;;;10.65;2.28;;;;;;;;;;5026714;28;20022;-83
2022/01/28 13:45:43;;;;;;;11.77;2.08;;;;;;;;;;5007376;28;20033;-83
2022/01/28 13:48:14;;;;;;;11.75;1.90;;;;;;;;;;5007036;28;20094;-82
2022/01/28 13:50:42;;;;;;;8.43;1.60;;;;;;;;;;5001598;28;20061;-82
2022/01/28 13:55:46;;;;;;;18.38;2.35;;;;;;;;;;5024796;28;20036;-82
2022/01/28 13:58:11;;;;;;;11.95;1.50;;;;;;;;;;5005752;28;20025;-81
2022/01/28 14:00:39;;;;;;;8.80;1.83;;;;;;;;;;5024401;28;20037;-83
2022/01/28 14:03:12;;;;;;;11.70;2.30;;;;;;;;;;5024140;28;20120;-82
2022/01/28 14:05:48;;;;;;;11.75;2.00;;;;;;;;;;5023919;28;20026;-84
2022/01/28 14:08:13;;;;;;;14.32;1.90;;;;;;;;;;5025714;28;20069;-82
2022/01/28 14:10:38;;;;;;;10.73;2.25;;;;;;;;;;5008782;28;20018;-82
2022/01/28 14:13:23;;;;;;;11.63;1.77;;;;;;;;;;5024255;28;20081;-83
2022/01/28 14:16:11;;;;;;;;;;;;;;;;;;5004898;28;20084;-83
2022/01/28 14:18:36;;;;;;;16.15;1.95;;;;;;;;;;5005698;28;19935;-83
2022/01/28 14:21:03;;;;;;;12.10;1.58;;;;;;;;;;5023325;28;20034;-83
2022/01/28 14:23:28;;;;;;;13.38;1.80;;;;;;;;;;5024250;28;20395;-81
2022/01/28 14:25:56;;;;;;;8.80;2.00;;;;;;;;;;5005697;28;20116;-82
2022/01/28 14:28:38;;;;;;;12.90;2.15;;;;;;;;;;5023423;28;20029;-82
2022/01/28 14:31:08;;;;;;;9.15;1.58;;;;;;;;;;5026216;28;20050;-82
2022/01/28 14:33:34;;;;;;;16.20;1.83;;;;;;;;;;5025242;28;20026;-84
2022/01/28 14:36:00;;;;;;;8.32;1.75;;;;;;;;;;5007379;28;20083;-84
2022/01/28 14:38:25;;;;;;;10.13;1.42;;;;;;;;;;5008600;28;20053;-82
2022/01/28 14:40:50;;;;;;;12.63;1.92;;;;;;;;;;5027688;28;20037;-81
2022/01/28 14:43:15;;;;;;;8.68;1.98;;;;;;;;;;5007119;28;20024;-82
2022/01/28 14:45:41;;;;;;;13.48;1.73;;;;;;;;;;5026522;28;20057;-83
2022/01/28 14:48:06;;;;;;;16.27;2.00;;;;;;;;;;5007606;28;20033;-81
2022/01/28 14:50:33;;;;;;;13.38;2.33;;;;;;;;;;5027100;28;20026;-82
2022/01/28 14:52:58;;;;;;;15.18;2.00;;;;;;;;;;5026943;28;20471;-82
2022/01/28 14:55:24;;;;;;;17.42;2.15;;;;;;;;;;5024333;28;20037;-82
2022/01/28 14:57:49;;;;;;;13.93;1.85;;;;;;;;;;5026838;28;20081;-81
2022/01/28 15:00:14;;;;;;;8.85;1.80;;;;;;;;;;5025989;28;20032;-81
2022/01/28 15:02:40;;;;;;;10.23;1.75;;;;;;;;;;5005207;28;20049;-83
2022/01/28 15:05:05;;;;;;;10.73;1.70;;;;;;;;;;5024923;28;20022;-83
2022/01/28 15:07:31;;;;;;;15.23;1.70;;;;;;;;;;5025400;28;20037;-83
2022/01/28 15:09:59;;;;;;;10.88;1.55;;;;;;;;;;5026327;28;20025;-83
2022/01/28 15:12:24;;;;;;;12.15;2.10;;;;;;;;;;5025497;28;20022;-82
2022/01/28 15:14:50;;;;;;;13.27;1.90;;;;;;;;;;5006294;28;20033;-84
2022/01/28 15:17:18;;;;;;;10.00;1.98;;;;;;;;;;5005044;28;20029;-80
2022/01/28 15:19:44;;;;;;;11.48;1.70;;;;;;;;;;5026883;28;20050;-84
2022/01/28 15:22:10;;;;;;;15.30;2.00;;;;;;;;;;5025528;28;20437;-81
2022/01/28 15:24:37;;;;;;;8.07;1.77;;;;;;;;;;5026911;28;20067;-82
2022/01/28 15:27:02;;;;;;;13.95;1.95;;;;;;;;;;5027497;28;20080;-83
2022/01/28 15:35:35;;;;;;;9.35;2.08;;;;;;;;;;5026867;28;20110;-82
2022/01/28 15:37:54;;;;;;;8.63;1.42;;;;;;;;;;5025126;28;20026;-83
2022/01/28 15:40:19;;;;;;;10.38;1.88;;;;;;;;;;5024775;28;20048;-83
2022/01/28 15:42:46;;;;;;;17.05;1.70;;;;;;;;;;5007118;28;20029;-82
2022/01/28 15:45:11;;;;;;;15.82;2.00;;;;;;;;;;5026611;28;20030;-82
2022/01/28 15:47:37;;;;;;;11.20;1.65;;;;;;;;;;5026024;28;20116;-83
2022/01/28 15:50:02;;;;;;;11.10;1.60;;;;;;;;;;5025339;28;20032;-83
2022/01/28 15:52:28;;;;;;;8.02;1.50;;;;;;;;;;5025849;28;20029;-81
2022/01/28 15:54:53;;;;;;;11.07;1.65;;;;;;;;;;5006771;28;20026;-81
2022/01/28 15:57:18;;;;;;;10.77;2.03;;;;;;;;;;5022529;28;20428;-82
2022/01/28 15:59:44;;;;;;;11.30;1.85;;;;;;;;;;5023444;28;20060;-82
2022/01/28 16:02:09;;;;;;;13.52;2.20;;;;;;;;;;5023840;28;20076;-83
2022/01/28 16:04:38;;;;;;;13.52;1.80;;;;;;;;;;5006141;28;20014;-82
2022/01/28 16:07:04;;;;;;;13.35;1.88;;;;;;;;;;5024921;28;20034;-80
2022/01/28 16:09:30;;;;;;;9.65;1.70;;;;;;;;;;5007041;28;20116;-81
2022/01/28 16:11:58;;;;;;;9.50;1.75;;;;;;;;;;5005387;28;20114;-82
2022/01/28 16:14:29;;;;;;;15.30;2.03;;;;;;;;;;5022605;28;20030;-82
2022/01/28 16:19:42;;;;;;;9.02;1.73;;;;;;;;;;5023453;28;20022;-81